createdAt,value
2023-05-01T00:02:36.011Z,14.39
2023-05-01T00:06:48.519Z,14.31
2023-05-01T00:11:05.101Z,14.30
2023-05-01T00:15:17.491Z,14.35
2023-05-01T00:19:29.903Z,14.28
2023-05-01T00:23:42.268Z,14.09
2023-05-01T00:27:55.950Z,14.06
2023-05-01T00:32:08.400Z,14.00
2023-05-01T00:36:21.340Z,13.91
2023-05-01T00:40:33.711Z,13.93
2023-05-01T00:44:46.458Z,13.87
2023-05-01T00:48:59.092Z,13.73
2023-05-01T00:53:12.692Z,13.59
2023-05-01T00:57:25.497Z,13.56
2023-05-01T01:01:38.348Z,13.51
2023-05-01T01:06:28.891Z,13.55
2023-05-01T01:10:57.446Z,13.59
2023-05-01T01:15:38.245Z,13.62
2023-05-01T01:20:31.878Z,13.58
2023-05-01T01:24:59.714Z,13.65
2023-05-01T01:29:28.240Z,13.61
2023-05-01T01:33:49.640Z,13.65
2023-05-01T01:38:22.930Z,13.72
2023-05-01T01:42:49.854Z,13.75
2023-05-01T01:47:07.519Z,13.82
2023-05-01T01:51:22.636Z,13.84
2023-05-01T01:55:37.204Z,13.83
2023-05-01T01:59:51.555Z,13.79
2023-05-01T02:04:06.392Z,13.69
2023-05-01T02:08:21.600Z,13.53
2023-05-01T02:12:34.632Z,13.48
2023-05-01T02:16:47.691Z,13.47
2023-05-01T02:21:01.328Z,13.49
2023-05-01T02:25:15.797Z,13.65
2023-05-01T02:29:28.431Z,13.64
2023-05-01T02:33:41.548Z,13.53
2023-05-01T02:37:54.342Z,13.40
2023-05-01T02:42:10.887Z,13.28
2023-05-01T02:46:26.154Z,13.25
2023-05-01T02:50:43.009Z,13.22
2023-05-01T02:54:57.513Z,13.18
2023-05-01T02:59:09.958Z,13.15
2023-05-01T03:03:22.379Z,13.09
2023-05-01T03:07:35.581Z,13.11
2023-05-01T03:11:48.248Z,13.14
2023-05-01T03:16:00.945Z,13.03
2023-05-01T03:20:13.702Z,12.98
2023-05-01T03:24:26.172Z,12.95
2023-05-01T03:28:38.624Z,12.93
2023-05-01T03:32:52.288Z,12.95
2023-05-01T03:37:10.994Z,13.21
2023-05-01T03:41:23.852Z,13.14
2023-05-01T03:45:44.675Z,13.25
2023-05-01T03:49:57.871Z,13.12
2023-05-01T03:54:10.779Z,13.10
2023-05-01T03:58:44.611Z,13.15
2023-05-01T04:02:57.873Z,13.21
2023-05-01T04:07:10.924Z,13.33
2023-05-01T04:11:23.561Z,13.40
2023-05-01T04:15:35.907Z,13.52
2023-05-01T04:19:48.960Z,13.65
2023-05-01T04:24:01.437Z,13.78
2023-05-01T04:28:14.291Z,14.05
2023-05-01T04:32:26.791Z,14.24
2023-05-01T04:36:39.945Z,14.35
2023-05-01T04:40:52.910Z,14.34
2023-05-01T04:45:05.878Z,14.40
2023-05-01T04:49:24.753Z,14.53
2023-05-01T04:53:37.240Z,14.62
2023-05-01T04:57:52.341Z,14.81
2023-05-01T05:02:04.844Z,14.70
2023-05-01T05:06:17.829Z,15.01
2023-05-01T05:10:30.132Z,15.13
2023-05-01T05:15:12.486Z,15.10
2023-05-01T05:19:24.934Z,15.07
2023-05-01T05:23:37.821Z,14.96
2023-05-01T05:27:51.282Z,15.23
2023-05-01T05:32:03.999Z,15.39
2023-05-01T05:36:16.487Z,15.49
2023-05-01T05:40:29.723Z,15.51
2023-05-01T05:44:43.101Z,15.40
2023-05-01T05:48:56.719Z,15.36
2023-05-01T05:53:10.752Z,15.69
2023-05-01T05:57:24.377Z,16.11
2023-05-01T06:01:38.083Z,16.13
2023-05-01T06:05:50.717Z,16.31
2023-05-01T06:10:05.368Z,16.34
2023-05-01T06:14:20.403Z,16.42
2023-05-01T06:18:32.972Z,16.49
2023-05-01T06:22:47.054Z,16.39
2023-05-01T06:27:22.557Z,16.54
2023-05-01T06:31:37.345Z,16.93
2023-05-01T06:35:52.087Z,17.28
2023-05-01T06:40:08.933Z,18.21
2023-05-01T06:44:22.423Z,18.95
2023-05-01T06:48:34.888Z,19.38
2023-05-01T06:52:47.402Z,19.43
2023-05-01T06:56:59.999Z,19.84
2023-05-01T07:01:12.532Z,20.33
2023-05-01T07:05:24.939Z,20.25
2023-05-01T07:09:37.666Z,20.35
2023-05-01T07:13:50.225Z,20.95
2023-05-01T07:18:03.435Z,21.22
2023-05-01T07:22:16.151Z,20.49
2023-05-01T07:26:28.558Z,20.65
2023-05-01T07:30:40.960Z,21.02
2023-05-01T07:34:53.480Z,21.26
2023-05-01T07:39:06.876Z,21.46
2023-05-01T07:43:19.438Z,21.17
2023-05-01T07:47:31.927Z,21.25
2023-05-01T07:51:45.790Z,21.70
2023-05-01T07:56:09.265Z,22.75
2023-05-01T08:00:21.944Z,23.23
2023-05-01T08:04:34.381Z,21.91
2023-05-01T08:08:46.991Z,21.78
2023-05-01T08:12:59.755Z,22.23
2023-05-01T08:17:12.155Z,23.07
2023-05-01T08:21:24.555Z,21.88
2023-05-01T08:25:36.954Z,22.44
2023-05-01T08:29:50.094Z,22.33
2023-05-01T08:34:02.488Z,22.31
2023-05-01T08:38:14.964Z,23.15
2023-05-01T08:42:28.676Z,22.79
2023-05-01T08:46:45.104Z,22.68
2023-05-01T08:50:59.838Z,23.30
2023-05-01T08:55:16.234Z,25.04
2023-05-01T08:59:30.384Z,24.01
2023-05-01T09:03:44.930Z,24.82
2023-05-01T09:07:59.310Z,24.78
2023-05-01T09:12:27.822Z,24.59
2023-05-01T09:16:40.322Z,25.03
2023-05-01T09:20:52.924Z,24.63
2023-05-01T09:25:05.734Z,23.88
2023-05-01T09:29:41.123Z,23.51
2023-05-01T09:33:58.831Z,24.80
2023-05-01T09:38:11.866Z,23.66
2023-05-01T09:42:24.521Z,25.17
2023-05-01T09:46:44.175Z,24.25
2023-05-01T09:50:56.929Z,23.58
2023-05-01T09:55:19.262Z,23.39
2023-05-01T09:59:34.563Z,22.71
2023-05-01T10:03:55.621Z,23.16
2023-05-01T10:08:10.608Z,23.67
2023-05-01T10:12:28.299Z,23.22
2023-05-01T10:16:40.720Z,22.62
2023-05-01T10:20:53.360Z,23.78
2023-05-01T10:25:12.329Z,23.81
2023-05-01T10:29:28.251Z,23.58
2023-05-01T10:33:42.579Z,23.05
2023-05-01T10:38:00.213Z,22.76
2023-05-01T10:42:15.105Z,22.74
2023-05-01T10:46:28.462Z,22.50
2023-05-01T10:51:18.262Z,23.19
2023-05-01T10:55:37.415Z,23.09
2023-05-01T11:00:02.294Z,23.31
2023-05-01T11:04:20.842Z,23.19
2023-05-01T11:08:35.097Z,23.39
2023-05-01T11:12:47.677Z,23.44
2023-05-01T11:17:00.050Z,23.23
2023-05-01T11:21:12.567Z,23.92
2023-05-01T11:25:31.174Z,24.39
2023-05-01T11:29:45.750Z,24.16
2023-05-01T11:34:01.946Z,25.12
2023-05-01T11:38:19.075Z,23.33
2023-05-01T11:42:31.454Z,23.21
2023-05-01T11:46:44.355Z,23.99
2023-05-01T11:50:56.833Z,23.92
2023-05-01T11:55:10.774Z,23.04
2023-05-01T11:59:23.298Z,23.29
2023-05-01T12:03:42.914Z,23.70
2023-05-01T12:08:16.066Z,23.92
2023-05-01T12:12:28.655Z,23.20
2023-05-01T12:16:41.453Z,23.11
2023-05-01T12:20:55.533Z,23.76
2023-05-01T12:25:08.680Z,23.45
2023-05-01T12:29:21.161Z,23.60
2023-05-01T12:33:33.608Z,24.05
2023-05-01T12:37:47.171Z,23.92
2023-05-01T12:42:00.138Z,23.91
2023-05-01T12:46:16.071Z,22.64
2023-05-01T12:50:28.530Z,22.75
2023-05-01T12:54:45.070Z,22.91
2023-05-01T12:58:58.151Z,22.56
2023-05-01T13:03:10.905Z,22.80
2023-05-01T13:07:23.387Z,24.46
2023-05-01T13:11:36.335Z,24.11
2023-05-01T13:15:48.817Z,23.57
2023-05-01T13:20:04.309Z,24.70
2023-05-01T13:24:16.853Z,23.55
2023-05-01T13:28:29.399Z,24.95
2023-05-01T13:32:42.616Z,24.91
2023-05-01T13:36:59.086Z,24.09
2023-05-01T13:41:15.873Z,23.99
2023-05-01T13:45:28.277Z,22.31
2023-05-01T13:49:42.502Z,21.82
2023-05-01T13:53:56.573Z,22.04
2023-05-01T13:58:09.202Z,21.67
2023-05-01T14:02:27.540Z,21.74
2023-05-01T14:06:47.192Z,21.37
2023-05-01T14:10:59.760Z,20.36
2023-05-01T14:15:13.575Z,20.00
2023-05-01T14:19:26.011Z,19.92
2023-05-01T14:23:42.391Z,19.86
2023-05-01T14:27:56.418Z,19.75
2023-05-01T14:32:09.875Z,19.61
2023-05-01T14:36:22.800Z,19.52
2023-05-01T14:40:35.548Z,19.26
2023-05-01T14:44:47.989Z,19.30
2023-05-01T14:49:01.853Z,19.62
2023-05-01T14:53:14.465Z,19.41
2023-05-01T14:57:29.135Z,19.11
2023-05-01T15:01:41.716Z,18.81
2023-05-01T15:05:54.610Z,18.02
2023-05-01T15:10:07.192Z,17.38
2023-05-01T15:14:19.735Z,17.16
2023-05-01T15:18:32.140Z,17.10
2023-05-01T15:22:45.679Z,16.96
2023-05-01T15:26:59.093Z,17.05
2023-05-01T15:31:11.812Z,17.38
2023-05-01T15:35:24.462Z,17.65
2023-05-01T15:39:37.220Z,17.87
2023-05-01T15:43:49.749Z,17.85
2023-05-01T15:48:03.186Z,18.02
2023-05-01T15:52:15.685Z,18.16
2023-05-01T15:56:28.518Z,18.12
2023-05-01T16:00:41.032Z,18.13
2023-05-01T16:04:54.328Z,18.18
2023-05-01T16:09:06.892Z,18.03
2023-05-01T16:13:19.295Z,17.89
2023-05-01T16:17:45.184Z,17.74
2023-05-01T16:21:57.879Z,17.68
2023-05-01T16:26:10.608Z,17.54
2023-05-01T16:30:25.946Z,17.56
2023-05-01T16:34:40.309Z,17.65
2023-05-01T16:38:55.601Z,17.68
2023-05-01T16:43:08.014Z,17.67
2023-05-01T16:47:20.403Z,17.69
2023-05-01T16:51:33.027Z,17.49
2023-05-01T16:55:45.419Z,17.33
2023-05-01T16:59:58.026Z,17.26
2023-05-01T17:04:10.973Z,17.18
2023-05-01T17:08:23.439Z,17.20
2023-05-01T17:12:35.999Z,17.11
2023-05-01T17:16:50.400Z,16.98
2023-05-01T17:21:03.032Z,16.86
2023-05-01T17:25:15.495Z,16.74
2023-05-01T17:29:28.301Z,16.71
2023-05-01T17:33:40.714Z,16.64
2023-05-01T17:37:53.318Z,16.58
2023-05-01T17:42:05.790Z,16.56
2023-05-01T17:46:18.657Z,16.52
2023-05-01T17:50:31.102Z,16.39
2023-05-01T17:54:43.624Z,16.32
2023-05-01T17:58:56.159Z,16.33
2023-05-01T18:03:09.447Z,16.31
2023-05-01T18:07:22.384Z,16.18
2023-05-01T18:11:35.099Z,16.07
2023-05-01T18:15:49.385Z,16.05
2023-05-01T18:20:03.129Z,15.95
2023-05-01T18:24:15.599Z,15.90
2023-05-01T18:28:28.685Z,15.94
2023-05-01T18:32:48.371Z,15.91
2023-05-01T18:37:01.547Z,15.93
2023-05-01T18:41:13.986Z,15.90
2023-05-01T18:45:26.520Z,15.85
2023-05-01T18:49:38.981Z,15.94
2023-05-01T18:53:51.364Z,16.03
2023-05-01T18:58:03.877Z,16.05
2023-05-01T19:02:16.594Z,16.01
2023-05-01T19:06:29.487Z,16.05
2023-05-01T19:10:42.762Z,15.96
2023-05-01T19:14:55.084Z,16.01
2023-05-01T19:19:07.458Z,16.06
2023-05-01T19:23:19.953Z,16.01
2023-05-01T19:27:32.335Z,15.95
2023-05-01T19:31:44.825Z,16.02
2023-05-01T19:35:57.230Z,15.98
2023-05-01T19:40:10.685Z,15.94
2023-05-01T19:44:23.130Z,15.90
2023-05-01T19:48:35.612Z,15.89
2023-05-01T19:52:48.061Z,15.91
2023-05-01T19:57:00.430Z,15.91
2023-05-01T20:01:13.565Z,15.90
2023-05-01T20:05:28.533Z,15.89
2023-05-01T20:09:41.072Z,15.84
2023-05-01T20:13:53.600Z,15.74
2023-05-01T20:18:17.038Z,15.74
2023-05-01T20:22:29.502Z,15.78
2023-05-01T20:26:41.929Z,15.81
2023-05-01T20:30:54.482Z,15.79
2023-05-01T20:35:07.283Z,15.78
2023-05-01T20:39:19.673Z,15.80
2023-05-01T20:43:32.120Z,15.79
2023-05-01T20:47:44.580Z,15.76
2023-05-01T20:51:58.865Z,15.71
2023-05-01T20:56:11.618Z,15.61
2023-05-01T21:00:24.066Z,15.65
2023-05-01T21:04:38.262Z,15.58
2023-05-01T21:08:51.443Z,15.52
2023-05-01T21:13:03.939Z,15.57
2023-05-01T21:17:18.539Z,15.51
2023-05-01T21:21:31.228Z,15.49
2023-05-01T21:25:44.153Z,15.36
2023-05-01T21:30:01.264Z,15.35
2023-05-01T21:34:17.784Z,15.31
2023-05-01T21:38:31.484Z,15.32
2023-05-01T21:42:43.851Z,15.29
2023-05-01T21:46:58.473Z,15.22
2023-05-01T21:51:10.874Z,15.22
2023-05-01T21:55:26.262Z,15.20
2023-05-01T21:59:39.600Z,15.25
2023-05-01T22:03:52.067Z,15.20
2023-05-01T22:08:04.722Z,15.18
2023-05-01T22:12:17.144Z,15.19
2023-05-01T22:16:29.644Z,15.14
2023-05-01T22:20:42.120Z,15.16
2023-05-01T22:24:54.483Z,15.20
2023-05-01T22:29:07.075Z,15.20
2023-05-01T22:33:19.663Z,15.18
2023-05-01T22:37:32.089Z,15.13
2023-05-01T22:41:44.594Z,15.11
2023-05-01T22:45:57.246Z,15.04
2023-05-01T22:50:10.422Z,14.98
2023-05-01T22:54:22.841Z,14.98
2023-05-01T22:58:35.321Z,15.04
2023-05-01T23:02:47.767Z,15.05
2023-05-01T23:07:00.174Z,15.12
2023-05-01T23:11:18.346Z,15.07
2023-05-01T23:15:31.724Z,15.13
2023-05-01T23:19:45.923Z,15.07
2023-05-01T23:23:58.472Z,15.02
2023-05-01T23:28:12.341Z,15.01
2023-05-01T23:32:28.197Z,15.02
2023-05-01T23:36:44.043Z,15.08
2023-05-01T23:40:56.631Z,14.97
2023-05-01T23:45:09.887Z,15.00
2023-05-01T23:49:22.314Z,14.94
2023-05-01T23:53:34.729Z,15.03
2023-05-01T23:57:47.227Z,14.96
